메인 페이지
METAR-TAF:

METAR-TAF

공항 :

Little Rock National Airport (Adams Field)

리틀록, 아칸소, 미국

위도: 34-43-36N, 경도: 092-14-10W, 고도: 79m

현재 날씨관측

예보는 35분 전, 14:53시(UTC)에 발표되었습니다.
동북동8kt
온도 27°C
습도 62%
기압 1014 hPa
시정: 16.1km
고도 5000ft 상공 구름 조금
고도 25000ft 상공 구름 보통

METAR: KLIT 231453Z 06008KT 10SM FEW050 SCT250 27/19 A2994 RMK AO2 SLP138 T02670194 50001

시각: 10:28 (15:28 UTC)

예보

예보는 3 시간 58분 전, 11:30시(UTC)에 발표되었습니다.
예보 대상 시간: 23일 12시부터 24일 12시까지 (UTC)
여러 방향의 바람 5kt
시정: 10km
고도 5000ft 상공 구름 보통
고도 10000ft 상공 구름 많음
23일 1600시부터 (UTC)
북동8kt
시정: 10km
고도 5000ft 상공 구름 보통
고도 25000ft 상공 구름 많음
24일 0300시부터 (UTC)
여러 방향의 바람 3kt
시정: 10km
고도 25000ft 상공 구름 많음

TAF: KLIT 231130Z 2312/2412 VRB05KT P6SM SCT050 BKN100 FM231600 04008KT P6SM SCT050 BKN250 FM240300 VRB03KT P6SM BKN250

4,000개 이상의 공항 관측 자료 및 예보 (METAR 및 TAF 보고).

지도상에서 검색 가능한 기상관측소가 노란 점과 빨간 점으로 표시되어 있습니다.

기상관측소 명을 보려면 표시 위로 마우스를 이동하세요.

날씨 관측과 예보를 보려면 클릭하세요.

지도 변경 : 확대하려면 엑스 표시가 있는 녹색 버튼, 축소하려면 빼기 표시가 있는 녹색 버튼, 다음 페이지의 지도를 보려면 녹색 화살표를 클릭하세요.


METAR-TAF: